Time;durP1;ratioP1;P1;durP2;ratioP2;P2;SDS_P1;SDS_P2;PMS_P1;PMS_P2;Temp;Humidity;BMP_temperature;BMP_pressure;BME280_temperature;BME280_humidity;BME280_pressure;Samples;Min_cycle;Max_cycle;Signal;HPM_P1;HPM_P2
2022/02/20 00:02:18;;;;;;;4.47;1.52;;;3.70;99.90;;;;;;5049309;28;20137;-72
2022/02/20 00:04:45;;;;;;;2.38;1.60;;;3.70;99.90;;;;;;5050445;28;20208;-71
2022/02/20 00:07:18;;;;;;;3.42;1.20;;;3.70;99.90;;;;;;5049308;28;20052;-71
2022/02/20 00:09:50;;;;;;;3.88;1.15;;;3.70;99.90;;;;;;5049389;28;20403;-71
2022/02/20 00:12:22;;;;;;;7.13;1.55;;;3.80;99.90;;;;;;5048862;28;20055;-72
2022/02/20 00:14:49;;;;;;;2.80;1.10;;;3.80;99.90;;;;;;5050617;28;20055;-72
2022/02/20 00:17:16;;;;;;;4.93;2.28;;;3.80;99.90;;;;;;5049416;28;20063;-71
2022/02/20 00:19:51;;;;;;;5.20;1.08;;;3.80;99.90;;;;;;5034001;28;20037;-71
2022/02/20 00:22:19;;;;;;;6.18;1.50;;;3.80;99.90;;;;;;5048710;28;20053;-72
2022/02/20 00:24:55;;;;;;;3.25;1.08;;;3.80;99.90;;;;;;5049369;28;20033;-71
2022/02/20 00:27:30;;;;;;;5.28;1.60;;;3.80;99.90;;;;;;5049164;28;20094;-71
2022/02/20 00:30:04;;;;;;;2.92;0.80;;;3.80;99.90;;;;;;5033567;28;20045;-72
2022/02/20 00:32:36;;;;;;;4.20;1.35;;;3.80;99.90;;;;;;5033141;28;20144;-71
2022/02/20 00:35:09;;;;;;;4.07;1.48;;;3.90;99.90;;;;;;5049002;28;20829;-71
2022/02/20 00:37:41;;;;;;;6.65;1.20;;;3.90;99.90;;;;;;5048928;28;20037;-71
2022/02/20 00:40:14;;;;;;;1.77;1.00;;;3.90;99.90;;;;;;5065897;28;20092;-72
2022/02/20 00:42:45;;;;;;;4.13;1.42;;;3.90;99.90;;;;;;5049828;28;20717;-71
2022/02/20 00:45:18;;;;;;;3.08;1.10;;;3.90;99.90;;;;;;5049207;28;20043;-71
2022/02/20 00:47:51;;;;;;;3.17;1.00;;;4.00;99.90;;;;;;5050242;28;20041;-71
2022/02/20 00:50:20;;;;;;;6.22;1.45;;;4.00;99.90;;;;;;5053574;28;20599;-71
2022/02/20 00:52:54;;;;;;;2.22;1.23;;;4.00;99.90;;;;;;5068297;28;20094;-71
2022/02/20 00:55:27;;;;;;;3.35;0.98;;;4.00;99.90;;;;;;5060873;28;20531;-71
2022/02/20 00:57:59;;;;;;;4.22;1.30;;;4.00;99.90;;;;;;5062119;28;20044;-71
2022/02/20 01:00:32;;;;;;;5.28;1.00;;;4.10;99.90;;;;;;5057569;28;20087;-71
2022/02/20 01:03:06;;;;;;;4.07;1.25;;;4.10;99.90;;;;;;5072568;28;20049;-70
2022/02/20 01:05:38;;;;;;;;;;;4.00;99.90;;;;;;5054822;28;20447;-72
2022/02/20 01:08:14;;;;;;;2.03;0.93;;;4.00;99.90;;;;;;5043715;28;20019;-72
2022/02/20 01:10:45;;;;;;;3.63;1.10;;;4.10;99.90;;;;;;5056820;28;20646;-71
2022/02/20 01:13:17;;;;;;;3.05;1.15;;;4.10;99.90;;;;;;5057581;28;20129;-71
2022/02/20 01:15:49;;;;;;;4.60;1.08;;;4.10;99.90;;;;;;5053366;28;20571;-71
2022/02/20 01:18:21;;;;;;;5.97;2.33;;;4.10;99.90;;;;;;5054422;28;20120;-71
2022/02/20 01:20:50;;;;;;;4.00;1.10;;;4.10;99.90;;;;;;5054223;28;20107;-72
2022/02/20 01:23:22;;;;;;;2.20;0.80;;;4.10;99.90;;;;;;5052394;28;20068;-71
2022/02/20 01:25:49;;;;;;;3.15;1.13;;;4.10;99.90;;;;;;5069559;28;20072;-71
2022/02/20 01:28:23;;;;;;;4.43;1.80;;;4.20;99.90;;;;;;5037052;28;20095;-72
2022/02/20 01:30:56;;;;;;;4.68;1.48;;;4.20;99.90;;;;;;5052444;28;20048;-72
2022/02/20 01:33:29;;;;;;;6.05;1.10;;;4.20;99.90;;;;;;5051059;28;20060;-72
2022/02/20 01:36:03;;;;;;;4.28;1.10;;;4.20;99.90;;;;;;5052952;28;20033;-71
2022/02/20 01:38:35;;;;;;;5.00;1.30;;;4.20;99.90;;;;;;5052598;28;20102;-71
2022/02/20 01:41:07;;;;;;;3.15;0.98;;;4.20;99.90;;;;;;5036958;28;20128;-72
2022/02/20 01:43:39;;;;;;;2.50;1.30;;;4.20;99.90;;;;;;5052193;28;20139;-72
2022/02/20 01:46:13;;;;;;;3.75;1.00;;;4.20;99.90;;;;;;5052266;28;20040;-70
2022/02/20 01:48:45;;;;;;;3.80;1.10;;;4.20;99.90;;;;;;5052770;28;20033;-72
2022/02/20 01:51:18;;;;;;;2.25;1.20;;;4.20;99.90;;;;;;5037097;28;20041;-71
2022/02/20 01:53:50;;;;;;;6.75;1.15;;;4.10;99.90;;;;;;5053284;28;20067;-71
2022/02/20 01:56:22;;;;;;;2.85;1.17;;;4.20;99.90;;;;;;5036675;28;20067;-71
2022/02/20 01:59:11;;;;;;;3.72;0.90;;;4.10;99.90;;;;;;5051605;28;20072;-71
2022/02/20 02:01:55;;;;;;;4.63;1.00;;;4.20;99.90;;;;;;5051399;28;20068;-71
2022/02/20 02:04:50;;;;;;;7.10;2.38;;;4.10;99.90;;;;;;5051973;28;20522;-71
2022/02/20 02:07:22;;;;;;;4.85;1.20;;;4.10;99.90;;;;;;5068262;28;20417;-71
2022/02/20 02:09:53;;;;;;;4.13;1.30;;;4.20;99.90;;;;;;5051255;28;20118;-72
2022/02/20 02:12:59;;;;;;;4.88;1.10;;;4.20;99.90;;;;;;5052265;28;20041;-71
2022/02/20 02:15:32;;;;;;;;;;;4.10;99.90;;;;;;5051923;28;20041;-71
2022/02/20 02:18:27;;;;;;;4.38;1.55;;;4.10;99.90;;;;;;5052710;28;20050;-72
2022/02/20 02:21:15;;;;;;;4.78;1.20;;;4.00;99.90;;;;;;5067742;28;20122;-72
2022/02/20 02:23:58;;;;;;;4.95;1.38;;;4.00;99.90;;;;;;5050745;28;20037;-72
2022/02/20 02:26:52;;;;;;;3.57;1.00;;;3.90;99.90;;;;;;5051182;28;20111;-71
2022/02/20 02:29:56;;;;;;;3.03;1.10;;;3.90;99.90;;;;;;5040762;28;20840;-71
2022/02/20 02:32:23;;;;;;;5.05;1.55;;;3.90;99.90;;;;;;5050730;28;20041;-71
2022/02/20 02:34:50;;;;;;;4.57;1.38;;;3.80;99.90;;;;;;5050965;28;20163;-71
2022/02/20 02:37:24;;;;;;;2.90;1.02;;;3.80;99.90;;;;;;5050936;28;20053;-70
2022/02/20 02:39:57;;;;;;;3.90;1.48;;;3.80;99.90;;;;;;5052225;28;20039;-71
2022/02/20 02:42:29;;;;;;;4.07;0.75;;;3.80;99.90;;;;;;5050753;28;20068;-72
2022/02/20 02:44:56;;;;;;;4.43;1.45;;;3.80;99.90;;;;;;5067699;28;20041;-71
2022/02/20 02:47:30;;;;;;;13.05;2.22;;;3.80;99.90;;;;;;5050869;28;20090;-71
2022/02/20 02:50:02;;;;;;;7.25;1.50;;;3.80;99.90;;;;;;5051463;28;20033;-70
2022/02/20 02:52:30;;;;;;;6.13;1.77;;;3.80;99.90;;;;;;5050005;28;20420;-71
2022/02/20 02:55:03;;;;;;;2.55;0.80;;;3.80;99.90;;;;;;5050421;28;20569;-71
2022/02/20 02:57:35;;;;;;;1.55;0.93;;;3.80;99.90;;;;;;5050645;28;20047;-71
2022/02/20 03:00:07;;;;;;;2.60;1.23;;;3.80;99.90;;;;;;5067277;28;20069;-71
2022/02/20 03:02:39;;;;;;;8.18;1.00;;;3.90;99.90;;;;;;5050014;28;20415;-71
2022/02/20 03:05:11;;;;;;;4.10;1.02;;;3.90;99.90;;;;;;5050280;28;20488;-71
2022/02/20 03:07:47;;;;;;;3.33;1.25;;;3.90;99.90;;;;;;5050570;28;20080;-71
2022/02/20 03:10:24;;;;;;;2.88;0.90;;;3.90;99.90;;;;;;5049336;28;20120;-70
2022/02/20 03:12:51;;;;;;;3.58;0.85;;;3.90;99.90;;;;;;5066479;28;20036;-71
2022/02/20 03:15:19;;;;;;;3.13;1.20;;;4.00;99.90;;;;;;5050182;28;20051;-72
2022/02/20 03:17:52;;;;;;;5.07;1.13;;;4.00;99.90;;;;;;5034538;28;20049;-71
2022/02/20 03:20:27;;;;;;;3.72;1.50;;;4.00;99.90;;;;;;5066468;28;20049;-71
2022/02/20 03:23:00;;;;;;;2.70;0.85;;;4.10;99.90;;;;;;5049726;28;20319;-71
2022/02/20 03:25:34;;;;;;;4.13;1.17;;;4.10;99.90;;;;;;5034189;28;20045;-72
2022/02/20 03:28:08;;;;;;;2.38;0.90;;;4.10;99.90;;;;;;5050055;28;20056;-72
2022/02/20 03:30:45;;;;;;;3.47;1.00;;;4.10;99.90;;;;;;5049972;28;20083;-72
2022/02/20 03:33:14;;;;;;;6.93;1.20;;;4.20;99.90;;;;;;5065990;28;20052;-71
2022/02/20 03:35:47;;;;;;;5.53;1.00;;;4.20;99.90;;;;;;5049897;28;20059;-72
2022/02/20 03:38:16;;;;;;;1.75;0.90;;;4.20;99.90;;;;;;5050162;28;20037;-70
2022/02/20 03:40:50;;;;;;;2.63;0.93;;;4.20;99.90;;;;;;5049625;28;20072;-72
2022/02/20 03:43:30;;;;;;;2.22;1.10;;;4.30;99.90;;;;;;5049264;28;20786;-71
2022/02/20 03:46:03;;;;;;;2.65;0.73;;;4.30;99.90;;;;;;5049786;28;20056;-72
2022/02/20 03:49:03;;;;;;;3.50;1.00;;;4.30;99.90;;;;;;5048588;28;20048;-72
2022/02/20 03:51:53;;;;;;;5.85;1.35;;;4.40;99.90;;;;;;5049517;28;20045;-71
2022/02/20 03:54:37;;;;;;;;;;;4.30;99.90;;;;;;5049667;28;20052;-71
2022/02/20 03:57:09;;;;;;;3.65;1.13;;;4.40;99.90;;;;;;5049520;28;20299;-72
2022/02/20 04:00:00;;;;;;;5.38;0.80;;;4.40;99.90;;;;;;5051149;28;20518;-71
2022/02/20 04:02:41;;;;;;;3.35;0.95;;;4.40;99.90;;;;;;5030291;28;20136;-72
2022/02/20 04:05:13;;;;;;;2.83;0.85;;;4.40;99.90;;;;;;5029391;28;20566;-72
2022/02/20 04:07:46;;;;;;;3.92;0.90;;;4.50;99.90;;;;;;5035444;28;20131;-71
2022/02/20 04:10:25;;;;;;;1.60;0.80;;;4.40;99.90;;;;;;5049380;28;20040;-71
2022/02/20 04:12:52;;;;;;;5.00;1.02;;;4.40;99.90;;;;;;5048792;28;20099;-71
2022/02/20 04:15:27;;;;;;;8.88;1.77;;;4.50;99.90;;;;;;5050014;28;20037;-70
2022/02/20 04:18:03;;;;;;;2.95;1.00;;;4.40;99.90;;;;;;5049839;28;20431;-71
2022/02/20 04:20:35;;;;;;;4.63;2.33;;;4.50;99.90;;;;;;5049814;28;20102;-70
2022/02/20 04:23:08;;;;;;;3.05;1.08;;;4.50;99.90;;;;;;5047911;28;20585;-72
2022/02/20 04:25:36;;;;;;;3.63;1.00;;;4.50;99.90;;;;;;5066337;28;20049;-71
2022/02/20 04:28:09;;;;;;;3.55;1.10;;;4.50;99.90;;;;;;5049744;28;20040;-71
2022/02/20 04:30:38;;;;;;;2.22;0.80;;;4.50;99.90;;;;;;5049947;28;20514;-72
2022/02/20 04:33:12;;;;;;;2.50;0.80;;;4.60;99.90;;;;;;5049096;28;20447;-72
2022/02/20 04:35:44;;;;;;;4.47;1.10;;;4.60;99.90;;;;;;5033882;28;20052;-72
2022/02/20 04:38:16;;;;;;;2.90;0.95;;;4.60;99.90;;;;;;5049471;28;20048;-71
2022/02/20 04:40:48;;;;;;;2.78;0.85;;;4.60;99.90;;;;;;5033824;28;20416;-71
2022/02/20 04:43:27;;;;;;;2.95;1.00;;;4.60;99.90;;;;;;5049149;28;20463;-72
2022/02/20 04:46:05;;;;;;;3.33;1.00;;;4.60;99.90;;;;;;5050872;28;20044;-71
2022/02/20 04:48:33;;;;;;;4.47;1.10;;;4.50;99.90;;;;;;5049697;28;20049;-71
2022/02/20 04:51:05;;;;;;;3.65;0.70;;;4.50;99.90;;;;;;5049524;28;20061;-72
2022/02/20 04:53:36;;;;;;;2.50;1.10;;;4.50;99.90;;;;;;5049955;28;20047;-71
2022/02/20 04:56:08;;;;;;;5.45;1.67;;;4.50;99.90;;;;;;5066169;28;20048;-71
2022/02/20 04:58:42;;;;;;;2.05;0.93;;;4.60;99.90;;;;;;5049534;28;20128;-71
2022/02/20 05:01:31;;;;;;;4.20;0.98;;;4.60;99.90;;;;;;5049369;28;20045;-72
2022/02/20 05:04:20;;;;;;;5.15;1.02;;;4.50;99.90;;;;;;5035478;28;20045;-71
2022/02/20 05:06:53;;;;;;;;;;;4.60;99.90;;;;;;5066136;28;20037;-72
2022/02/20 05:09:34;;;;;;;5.35;0.88;;;4.60;99.90;;;;;;5049292;28;19920;-72
2022/02/20 05:12:06;;;;;;;4.43;0.85;;;4.50;99.90;;;;;;5065802;28;20124;-72
2022/02/20 05:14:33;;;;;;;9.40;1.85;;;4.50;99.90;;;;;;5048790;28;20111;-71
2022/02/20 05:17:21;;;;;;;2.80;1.70;;;4.50;99.90;;;;;;5049289;28;20518;-71
2022/02/20 05:19:58;;;;;;;2.15;0.80;;;4.50;99.90;;;;;;5049273;28;20045;-72
2022/02/20 05:22:30;;;;;;;3.25;1.05;;;4.50;99.90;;;;;;5032527;28;20122;-71
2022/02/20 05:25:07;;;;;;;6.47;0.93;;;4.60;99.90;;;;;;5034075;28;20045;-71
2022/02/20 05:27:44;;;;;;;4.47;1.50;;;4.50;99.90;;;;;;5033404;28;20080;-71
2022/02/20 05:30:20;;;;;;;2.35;0.88;;;4.50;99.90;;;;;;5049106;28;20041;-72
2022/02/20 05:33:09;;;;;;;2.05;0.80;;;4.50;99.90;;;;;;5035005;28;20048;-71
2022/02/20 05:35:37;;;;;;;3.13;0.90;;;4.50;99.90;;;;;;5052615;28;20526;-71
2022/02/20 05:38:11;;;;;;;3.83;1.10;;;4.50;99.90;;;;;;5069445;28;20463;-72
2022/02/20 05:40:53;;;;;;;5.60;1.00;;;4.50;99.90;;;;;;5051779;28;20114;-71
2022/02/20 05:43:20;;;;;;;3.55;0.90;;;4.50;99.90;;;;;;5047682;28;20311;-71
2022/02/20 05:45:53;;;;;;;2.88;1.00;;;4.50;99.90;;;;;;5053767;28;20052;-71
2022/02/20 05:48:33;;;;;;;1.98;1.30;;;4.50;99.90;;;;;;5052738;28;20049;-71
2022/02/20 05:51:12;;;;;;;3.03;0.90;;;4.50;99.90;;;;;;5052593;28;20045;-71
2022/02/20 05:53:44;;;;;;;2.85;0.88;;;4.50;99.90;;;;;;5052664;28;20048;-72
2022/02/20 05:56:11;;;;;;;3.30;0.63;;;4.50;99.90;;;;;;5052402;28;20488;-72
2022/02/20 05:58:55;;;;;;;4.53;0.80;;;4.50;99.90;;;;;;5052384;28;20048;-72
2022/02/20 06:01:31;;;;;;;6.18;1.52;;;4.50;99.90;;;;;;5069007;28;20439;-72
2022/02/20 06:04:06;;;;;;;2.63;0.75;;;4.50;99.90;;;;;;5051598;28;20041;-72
2022/02/20 06:06:37;;;;;;;4.10;0.95;;;4.50;99.90;;;;;;5052295;28;20052;-72
2022/02/20 06:09:25;;;;;;;4.07;1.00;;;4.50;99.90;;;;;;5053039;28;20049;-71
2022/02/20 06:12:28;;;;;;;6.10;1.15;;;4.50;99.90;;;;;;5047820;28;20127;-71
2022/02/20 06:15:21;;;;;;;3.97;1.23;;;4.60;99.90;;;;;;5053032;28;20057;-71
2022/02/20 06:18:29;;;;;;;3.88;0.90;;;4.50;99.90;;;;;;4991574;28;20046;-72
2022/02/20 06:21:39;;;;;;;3.13;0.70;;;4.50;99.90;;;;;;4972114;28;20047;-72
2022/02/20 06:24:24;;;;;;;4.03;0.82;;;4.50;99.90;;;;;;4958322;28;20089;-71
2022/02/20 06:27:19;;;;;;;2.30;0.82;;;4.50;99.90;;;;;;4995178;28;20053;-72
2022/02/20 06:29:51;;;;;;;5.40;1.10;;;4.60;99.90;;;;;;5031792;28;20168;-71
2022/02/20 06:32:23;;;;;;;3.33;1.10;;;4.60;99.90;;;;;;5048790;28;20068;-71
2022/02/20 06:34:50;;;;;;;2.53;1.20;;;4.60;99.90;;;;;;5068295;28;20496;-72
2022/02/20 06:37:17;;;;;;;3.35;0.80;;;4.60;99.90;;;;;;5051570;28;20103;-71
2022/02/20 06:39:46;;;;;;;5.70;2.63;;;4.60;99.90;;;;;;5051359;28;20172;-72
2022/02/20 06:42:18;;;;;;;3.10;1.00;;;4.70;99.90;;;;;;5051307;28;20045;-72
2022/02/20 06:44:51;;;;;;;2.75;0.95;;;4.70;99.90;;;;;;5051960;28;20063;-72
2022/02/20 06:47:49;;;;;;;1.75;0.80;;;4.60;99.90;;;;;;5050339;28;20056;-72
2022/02/20 06:50:36;;;;;;;3.78;0.68;;;4.70;99.90;;;;;;5031433;28;20033;-70
2022/02/20 06:53:26;;;;;;;1.85;0.77;;;4.70;99.90;;;;;;5032498;28;20816;-71
2022/02/20 06:56:12;;;;;;;3.08;0.80;;;4.70;99.90;;;;;;5052581;28;20523;-72
2022/02/20 06:58:44;;;;;;;1.52;0.70;;;4.70;99.90;;;;;;5052365;28;20047;-71
2022/02/20 07:01:16;;;;;;;2.70;0.93;;;4.70;99.90;;;;;;5051142;28;20041;-71
2022/02/20 07:03:48;;;;;;;2.80;0.80;;;4.70;99.90;;;;;;5051845;28;20060;-73
2022/02/20 07:06:14;;;;;;;2.38;0.90;;;4.70;99.90;;;;;;5047767;28;20128;-72
2022/02/20 07:08:50;;;;;;;4.35;1.13;;;4.80;99.90;;;;;;5034753;28;20052;-72
2022/02/20 07:11:16;;;;;;;2.75;0.90;;;4.80;99.90;;;;;;5052045;28;20037;-72
2022/02/20 07:13:48;;;;;;;4.32;0.90;;;4.80;99.90;;;;;;5051538;28;20037;-71
2022/02/20 07:16:20;;;;;;;2.88;0.93;;;4.90;99.90;;;;;;5050586;28;20131;-70
2022/02/20 07:18:53;;;;;;;3.88;1.05;;;4.90;99.90;;;;;;5052217;28;20120;-70
2022/02/20 07:21:26;;;;;;;4.38;1.08;;;4.90;99.90;;;;;;5050788;28;20052;-69
2022/02/20 07:23:53;;;;;;;1.60;0.60;;;4.90;99.90;;;;;;5066915;28;20060;-71
2022/02/20 07:26:29;;;;;;;1.70;0.63;;;4.90;99.90;;;;;;5050380;28;20492;-71
2022/02/20 07:29:00;;;;;;;2.53;0.90;;;4.90;99.90;;;;;;5051547;28;20044;-71
2022/02/20 07:31:28;;;;;;;2.90;0.90;;;5.00;99.90;;;;;;5066966;28;20128;-70
2022/02/20 07:34:01;;;;;;;3.80;0.80;;;5.00;99.90;;;;;;5038210;28;20055;-71
2022/02/20 07:36:33;;;;;;;4.13;0.82;;;5.00;99.90;;;;;;5043121;28;20045;-71
2022/02/20 07:38:59;;;;;;;3.40;1.35;;;5.00;99.90;;;;;;5050206;28;20053;-71
2022/02/20 07:41:26;;;;;;;4.30;0.80;;;5.00;99.90;;;;;;5050164;28;20126;-72
2022/02/20 07:43:53;;;;;;;3.90;0.70;;;5.00;99.90;;;;;;5049868;28;20053;-71
2022/02/20 07:46:24;;;;;;;4.63;0.80;;;5.00;99.90;;;;;;5049878;28;20049;-71
2022/02/20 07:48:59;;;;;;;1.52;0.70;;;5.00;99.90;;;;;;5049699;28;20128;-71
2022/02/20 07:51:27;;;;;;;5.20;0.80;;;5.10;99.90;;;;;;5050198;28;20123;-70
2022/02/20 07:53:55;;;;;;;3.10;0.75;;;5.10;99.90;;;;;;5049489;28;20045;-70
2022/02/20 07:56:27;;;;;;;1.43;0.80;;;5.10;99.90;;;;;;5049735;28;20052;-71
2022/02/20 07:58:59;;;;;;;5.03;0.75;;;5.10;99.90;;;;;;5066400;28;20665;-71
2022/02/20 08:01:32;;;;;;;1.55;0.82;;;5.10;99.90;;;;;;5064472;28;20052;-71
2022/02/20 08:03:59;;;;;;;3.30;1.30;;;5.10;99.90;;;;;;5048631;28;20148;-70
2022/02/20 08:06:26;;;;;;;2.35;0.70;;;5.20;99.90;;;;;;5049210;28;20685;-71
2022/02/20 08:08:52;;;;;;;2.65;0.80;;;5.20;99.90;;;;;;5050436;28;20069;-71
2022/02/20 08:11:24;;;;;;;2.22;0.70;;;5.20;99.90;;;;;;5048725;28;20470;-71
2022/02/20 08:13:57;;;;;;;4.15;1.08;;;5.20;99.90;;;;;;5039054;28;20128;-70
2022/02/20 08:16:24;;;;;;;1.23;0.50;;;5.20;99.90;;;;;;5049052;28;20563;-71
2022/02/20 08:18:56;;;;;;;2.30;0.70;;;5.20;99.90;;;;;;5046294;28;20037;-71
2022/02/20 08:21:28;;;;;;;1.73;0.73;;;5.20;99.90;;;;;;5031982;28;20046;-70
2022/02/20 08:23:55;;;;;;;4.80;1.00;;;5.30;99.90;;;;;;5067629;28;20574;-71
2022/02/20 08:26:22;;;;;;;4.40;0.93;;;5.30;99.90;;;;;;5070738;28;20503;-71
2022/02/20 08:28:54;;;;;;;2.33;0.85;;;5.30;99.90;;;;;;5048591;28;20045;-71
2022/02/20 08:31:29;;;;;;;1.95;0.80;;;5.40;99.90;;;;;;5047814;28;20060;-70
2022/02/20 08:33:57;;;;;;;2.45;0.80;;;5.40;99.90;;;;;;5048319;28;20572;-70
2022/02/20 08:36:29;;;;;;;1.48;0.65;;;5.50;99.90;;;;;;5050492;28;20063;-71
2022/02/20 08:39:00;;;;;;;2.65;0.80;;;5.50;99.90;;;;;;5085524;28;20043;-71
2022/02/20 08:41:32;;;;;;;1.20;0.80;;;5.50;99.90;;;;;;5068767;28;20059;-70
2022/02/20 08:44:05;;;;;;;2.03;0.63;;;5.50;99.90;;;;;;5069433;28;20036;-70
2022/02/20 08:46:37;;;;;;;1.88;0.70;;;5.50;99.90;;;;;;5040695;28;20404;-71
2022/02/20 08:49:09;;;;;;;5.32;1.77;;;5.60;99.90;;;;;;5039226;28;20048;-70
2022/02/20 08:51:41;;;;;;;3.00;0.77;;;5.60;99.90;;;;;;5044691;28;20046;-71
2022/02/20 08:54:10;;;;;;;3.95;1.02;;;5.70;99.90;;;;;;5045031;28;20037;-71
2022/02/20 08:56:45;;;;;;;2.35;0.70;;;5.70;99.90;;;;;;5049881;28;20669;-70
2022/02/20 08:59:17;;;;;;;3.22;0.65;;;5.70;99.90;;;;;;5048673;28;20041;-70
2022/02/20 09:01:44;;;;;;;4.82;0.80;;;5.80;99.90;;;;;;5048998;28;20045;-70
2022/02/20 09:04:13;;;;;;;3.65;0.82;;;5.80;99.90;;;;;;5065019;28;20063;-70
2022/02/20 09:06:45;;;;;;;2.00;0.70;;;5.90;99.90;;;;;;5049024;28;20037;-70
2022/02/20 09:09:12;;;;;;;1.20;0.80;;;5.90;99.90;;;;;;5051917;28;20045;-70
2022/02/20 09:11:39;;;;;;;1.95;0.73;;;5.90;99.90;;;;;;5053121;28;20060;-70
2022/02/20 09:14:07;;;;;;;4.15;1.05;;;6.00;99.90;;;;;;5035943;28;20045;-69
2022/02/20 09:16:39;;;;;;;4.13;0.95;;;6.00;99.90;;;;;;5053296;28;20041;-70
2022/02/20 09:19:08;;;;;;;2.67;0.93;;;6.20;99.90;;;;;;5036563;28;20471;-69
2022/02/20 09:21:41;;;;;;;1.83;0.88;;;6.30;99.90;;;;;;5053086;28;20132;-70
2022/02/20 09:24:13;;;;;;;3.38;0.90;;;6.40;99.90;;;;;;5053729;28;20132;-69
2022/02/20 09:26:50;;;;;;;1.80;0.88;;;6.50;99.90;;;;;;5052618;28;20067;-70
2022/02/20 09:29:22;;;;;;;1.77;0.70;;;6.50;99.90;;;;;;5052724;28;20397;-70
2022/02/20 09:31:54;;;;;;;3.15;1.05;;;6.60;99.90;;;;;;5052694;28;20044;-70
2022/02/20 09:34:21;;;;;;;1.38;0.80;;;6.60;99.90;;;;;;5052352;28;20041;-69
2022/02/20 09:36:53;;;;;;;3.53;0.85;;;6.70;99.90;;;;;;5054006;28;20039;-70
2022/02/20 09:39:25;;;;;;;2.60;1.15;;;6.70;99.90;;;;;;5054054;28;20048;-70
2022/02/20 09:41:58;;;;;;;2.47;0.60;;;6.70;99.90;;;;;;5052551;28;20599;-72
2022/02/20 09:44:30;;;;;;;4.32;1.27;;;6.70;99.90;;;;;;5036689;28;20055;-70
2022/02/20 09:46:57;;;;;;;2.63;0.80;;;6.80;99.90;;;;;;5052548;28;20059;-70
2022/02/20 09:49:29;;;;;;;2.53;0.88;;;6.90;99.90;;;;;;5051285;28;20120;-71
2022/02/20 09:52:03;;;;;;;3.40;0.70;;;6.90;99.90;;;;;;5050191;28;20098;-70
2022/02/20 09:54:35;;;;;;;2.67;0.80;;;7.00;99.90;;;;;;5052724;28;20283;-71
2022/02/20 09:57:03;;;;;;;2.63;0.80;;;7.00;99.90;;;;;;5048046;28;20053;-70
2022/02/20 09:59:36;;;;;;;2.00;0.80;;;7.00;99.90;;;;;;5066878;28;20041;-71
2022/02/20 10:02:09;;;;;;;2.22;0.68;;;7.20;99.90;;;;;;5065480;28;20140;-71
2022/02/20 10:04:59;;;;;;;3.63;0.70;;;7.50;99.90;;;;;;5065717;28;20049;-71
2022/02/20 10:07:30;;;;;;;1.98;0.85;;;7.60;99.90;;;;;;5053091;28;20159;-70
2022/02/20 10:10:25;;;;;;;2.47;0.70;;;7.50;99.90;;;;;;5041587;28;20216;-70
2022/02/20 10:12:58;;;;;;;;;;;7.50;99.90;;;;;;5060249;28;20055;-71
2022/02/20 10:15:29;;;;;;;1.40;0.65;;;7.40;99.90;;;;;;5051849;28;20420;-71
2022/02/20 10:18:27;;;;;;;2.00;0.70;;;7.50;99.90;;;;;;5052896;28;20041;-71
2022/02/20 10:21:23;;;;;;;3.67;0.52;;;7.60;99.90;;;;;;5052104;28;20080;-71
2022/02/20 10:24:15;;;;;;;0.98;0.50;;;7.60;99.90;;;;;;5052365;28;20056;-71
2022/02/20 10:27:08;;;;;;;3.85;0.70;;;7.60;99.90;;;;;;5032440;28;20052;-71
2022/02/20 10:29:36;;;;;;;1.48;0.50;;;7.70;99.90;;;;;;5062648;28;20083;-70
2022/02/20 10:32:07;;;;;;;1.23;0.60;;;7.70;99.90;;;;;;5069639;28;20381;-71
2022/02/20 10:34:39;;;;;;;6.43;0.70;;;7.70;99.90;;;;;;5052311;28;20133;-71
2022/02/20 10:37:11;;;;;;;8.13;0.95;;;7.60;99.90;;;;;;5046506;28;20039;-70
2022/02/20 10:39:44;;;;;;;1.88;0.68;;;7.60;99.90;;;;;;5050132;28;20055;-71
2022/02/20 10:42:14;;;;;;;0.70;0.50;;;7.60;99.90;;;;;;5052485;28;20049;-71
2022/02/20 10:44:52;;;;;;;1.35;0.60;;;7.60;99.90;;;;;;5067267;28;20514;-71
2022/02/20 10:47:24;;;;;;;2.15;0.60;;;7.60;99.90;;;;;;5035445;28;20047;-70
2022/02/20 10:50:15;;;;;;;2.95;0.70;;;7.60;99.90;;;;;;5055555;28;20076;-71
2022/02/20 10:52:43;;;;;;;2.95;0.60;;;7.70;99.90;;;;;;5074515;28;20496;-70
2022/02/20 10:55:15;;;;;;;2.03;0.70;;;7.70;99.90;;;;;;5044316;28;20495;-71
2022/02/20 10:57:49;;;;;;;3.25;1.45;;;7.80;99.90;;;;;;5050945;28;20144;-71
2022/02/20 11:00:20;;;;;;;2.15;0.70;;;7.90;99.90;;;;;;5044086;28;20112;-71
2022/02/20 11:03:08;;;;;;;2.78;0.65;;;7.90;99.90;;;;;;5065925;28;20140;-71
2022/02/20 11:05:41;;;;;;;2.83;0.80;;;7.90;99.90;;;;;;5049545;28;20043;-72
2022/02/20 11:08:09;;;;;;;1.85;0.70;;;7.90;99.90;;;;;;5050579;28;20054;-71
2022/02/20 11:10:42;;;;;;;3.75;0.90;;;7.90;99.90;;;;;;5047775;28;20463;-71
2022/02/20 11:13:10;;;;;;;1.95;0.70;;;8.00;99.90;;;;;;5050978;28;20116;-71
2022/02/20 11:15:44;;;;;;;;;;;8.10;99.90;;;;;;5052439;28;20047;-71
2022/02/20 11:18:16;;;;;;;2.65;0.70;;;8.20;99.90;;;;;;5051633;28;19975;-71
2022/02/20 11:20:46;;;;;;;1.15;0.55;;;8.40;99.90;;;;;;5050929;28;20468;-71
2022/02/20 11:23:24;;;;;;;2.58;0.88;;;8.50;99.90;;;;;;5046081;28;20094;-71
2022/02/20 11:25:59;;;;;;;3.10;0.70;;;8.50;99.90;;;;;;5050617;28;20123;-70
2022/02/20 11:28:31;;;;;;;2.90;0.70;;;8.60;99.90;;;;;;5065096;28;20518;-71
2022/02/20 11:30:59;;;;;;;1.00;0.68;;;8.60;99.90;;;;;;5051021;28;20116;-70
2022/02/20 11:33:33;;;;;;;4.30;0.70;;;8.60;99.90;;;;;;5041724;28;20061;-71
2022/02/20 11:36:01;;;;;;;1.70;0.77;;;8.70;99.90;;;;;;5050201;28;20041;-71
2022/02/20 11:38:33;;;;;;;1.33;0.55;;;8.80;99.90;;;;;;5063928;28;20119;-71
2022/02/20 11:41:12;;;;;;;1.55;0.88;;;8.80;99.90;;;;;;5064288;28;20047;-71
2022/02/20 11:43:50;;;;;;;1.08;0.50;;;8.80;99.90;;;;;;5044705;28;20487;-70
2022/02/20 11:46:22;;;;;;;2.22;0.75;;;9.00;99.90;;;;;;5046482;28;20041;-70
2022/02/20 11:49:20;;;;;;;3.03;0.77;;;9.00;99.90;;;;;;5039178;28;20144;-70
2022/02/20 11:52:20;;;;;;;4.30;1.40;;;9.00;99.90;;;;;;5035541;28;20053;-70
2022/02/20 11:54:57;;;;;;;2.28;0.50;;;8.80;99.90;;;;;;5041365;28;20611;-71
2022/02/20 11:57:29;;;;;;;3.78;0.77;;;8.80;99.90;;;;;;5049113;28;20069;-70
2022/02/20 12:00:04;;;;;;;0.75;0.60;;;8.70;99.90;;;;;;5048715;28;20112;-71
2022/02/20 12:03:00;;;;;;;2.90;0.50;;;8.70;99.90;;;;;;5034851;28;20073;-71
2022/02/20 12:05:35;;;;;;;1.85;0.70;;;8.60;99.90;;;;;;5050950;28;20136;-71
2022/02/20 12:08:28;;;;;;;2.58;0.77;;;8.70;99.90;;;;;;5047478;28;20132;-71
2022/02/20 12:11:13;;;;;;;2.47;0.73;;;8.90;99.90;;;;;;5045754;28;20052;-71
2022/02/20 12:13:51;;;;;;;2.22;0.70;;;9.00;99.90;;;;;;5048312;28;20116;-71
2022/02/20 12:16:21;;;;;;;0.88;0.47;;;9.00;99.90;;;;;;5066293;28;20119;-71
2022/02/20 12:19:15;;;;;;;1.38;0.60;;;9.00;99.90;;;;;;5048703;28;20098;-70
2022/02/20 12:21:56;;;;;;;1.30;0.70;;;9.10;99.90;;;;;;5049529;28;20420;-70
2022/02/20 12:24:52;;;;;;;1.08;0.50;;;9.30;99.90;;;;;;5050782;28;20576;-71
2022/02/20 12:27:27;;;;;;;1.77;0.50;;;9.40;99.90;;;;;;5049297;28;20044;-71
2022/02/20 12:30:12;;;;;;;1.20;0.75;;;9.50;99.90;;;;;;5046144;28;20045;-71
2022/02/20 12:32:42;;;;;;;2.78;0.70;;;9.40;99.90;;;;;;5059501;28;20502;-71
2022/02/20 12:35:20;;;;;;;1.95;1.17;;;9.40;99.90;;;;;;5050590;28;20504;-70
2022/02/20 12:37:56;;;;;;;1.75;0.63;;;9.50;99.90;;;;;;5046859;28;20099;-71
2022/02/20 12:40:34;;;;;;;2.63;1.23;;;9.50;99.90;;;;;;5046607;28;20112;-71
2022/02/20 12:43:10;;;;;;;2.83;0.40;;;9.40;99.90;;;;;;5044879;28;20115;-70
2022/02/20 12:45:40;;;;;;;1.25;0.40;;;9.60;99.90;;;;;;5053225;28;20143;-71
2022/02/20 12:48:15;;;;;;;1.25;0.40;;;9.70;99.90;;;;;;5049863;28;20033;-71
2022/02/20 12:50:49;;;;;;;2.38;0.30;;;9.80;99.90;;;;;;5047445;28;20148;-70
2022/02/20 12:53:20;;;;;;;0.90;0.50;;;9.70;99.90;;;;;;5052454;28;20047;-70
2022/02/20 12:55:55;;;;;;;1.60;0.40;;;9.60;99.90;;;;;;5054577;28;20112;-70
2022/02/20 12:58:28;;;;;;;0.55;0.32;;;9.50;99.90;;;;;;5044379;28;20041;-70
2022/02/20 13:01:04;;;;;;;2.05;0.60;;;9.50;99.90;;;;;;5049090;28;20033;-70
2022/02/20 13:03:36;;;;;;;3.10;0.40;;;9.50;99.90;;;;;;5052198;28;20055;-70
2022/02/20 13:06:08;;;;;;;1.30;0.32;;;9.60;99.90;;;;;;5051141;28;20044;-70
2022/02/20 13:08:41;;;;;;;2.28;0.40;;;9.60;99.90;;;;;;5052974;28;20574;-70
2022/02/20 13:11:10;;;;;;;2.22;0.50;;;9.70;99.90;;;;;;5069299;28;20139;-70
2022/02/20 13:13:41;;;;;;;;;;;9.70;99.90;;;;;;5051654;28;20128;-70
2022/02/20 13:16:23;;;;;;;2.00;0.50;;;9.80;99.90;;;;;;5050208;28;19924;-70
2022/02/20 13:18:50;;;;;;;0.90;0.50;;;10.00;99.90;;;;;;5048552;28;20044;-71
2022/02/20 13:21:24;;;;;;;0.77;0.50;;;10.20;99.90;;;;;;5052835;28;20116;-70
2022/02/20 13:23:55;;;;;;;0.90;0.50;;;10.20;99.90;;;;;;5053509;28;20569;-70
2022/02/20 13:26:29;;;;;;;2.10;0.50;;;10.00;99.90;;;;;;5046297;28;20055;-70
2022/02/20 13:29:01;;;;;;;1.00;0.60;;;10.10;99.90;;;;;;5054184;28;20577;-71
2022/02/20 13:31:38;;;;;;;1.52;0.50;;;10.10;99.90;;;;;;5053158;28;20095;-71
2022/02/20 13:34:15;;;;;;;0.73;0.45;;;10.00;99.90;;;;;;5047222;28;20498;-70
2022/02/20 13:36:42;;;;;;;2.40;0.30;;;10.00;99.90;;;;;;5050000;28;20400;-70
2022/02/20 13:39:14;;;;;;;1.50;0.40;;;10.10;99.90;;;;;;5052500;28;20083;-71